sensor_id;sensor_type;location;lat;lon;timestamp;P1;durP1;ratioP1;P2;durP2;ratioP2
9884;SDS011;4981;50.966;4.842;2023-09-19T00:09:34;10.60;;;2.80;;
9884;SDS011;4981;50.966;4.842;2023-09-19T00:12:03;11.20;;;2.00;;
9884;SDS011;4981;50.966;4.842;2023-09-19T00:14:31;7.93;;;2.20;;
9884;SDS011;4981;50.966;4.842;2023-09-19T00:17:00;8.10;;;2.03;;
9884;SDS011;4981;50.966;4.842;2023-09-19T00:19:31;11.73;;;2.40;;
9884;SDS011;4981;50.966;4.842;2023-09-19T00:21:58;16.07;;;2.43;;
9884;SDS011;4981;50.966;4.842;2023-09-19T00:24:25;10.60;;;2.20;;
9884;SDS011;4981;50.966;4.842;2023-09-19T00:26:54;13.13;;;2.40;;
9884;SDS011;4981;50.966;4.842;2023-09-19T00:29:21;8.83;;;2.10;;
9884;SDS011;4981;50.966;4.842;2023-09-19T00:31:48;8.43;;;2.33;;
9884;SDS011;4981;50.966;4.842;2023-09-19T00:34:16;7.93;;;2.37;;
9884;SDS011;4981;50.966;4.842;2023-09-19T00:36:43;6.87;;;2.30;;
9884;SDS011;4981;50.966;4.842;2023-09-19T00:39:10;10.23;;;2.20;;
9884;SDS011;4981;50.966;4.842;2023-09-19T00:41:37;8.53;;;2.40;;
9884;SDS011;4981;50.966;4.842;2023-09-19T00:44:07;8.97;;;2.30;;
9884;SDS011;4981;50.966;4.842;2023-09-19T00:46:35;10.90;;;2.10;;
9884;SDS011;4981;50.966;4.842;2023-09-19T00:49:02;10.03;;;2.20;;
9884;SDS011;4981;50.966;4.842;2023-09-19T00:51:29;8.07;;;2.20;;
9884;SDS011;4981;50.966;4.842;2023-09-19T00:53:56;9.40;;;2.20;;
9884;SDS011;4981;50.966;4.842;2023-09-19T00:56:25;9.70;;;2.17;;
9884;SDS011;4981;50.966;4.842;2023-09-19T00:58:52;9.10;;;2.63;;
9884;SDS011;4981;50.966;4.842;2023-09-19T01:01:20;9.53;;;2.30;;
9884;SDS011;4981;50.966;4.842;2023-09-19T01:03:47;10.40;;;2.20;;
9884;SDS011;4981;50.966;4.842;2023-09-19T01:06:15;10.47;;;2.10;;
9884;SDS011;4981;50.966;4.842;2023-09-19T01:08:42;9.50;;;2.20;;
9884;SDS011;4981;50.966;4.842;2023-09-19T01:11:11;12.50;;;2.33;;
9884;SDS011;4981;50.966;4.842;2023-09-19T01:13:47;9.83;;;2.07;;
9884;SDS011;4981;50.966;4.842;2023-09-19T01:16:26;10.30;;;2.03;;
9884;SDS011;4981;50.966;4.842;2023-09-19T01:19:01;9.50;;;2.10;;
9884;SDS011;4981;50.966;4.842;2023-09-19T01:21:50;8.23;;;2.10;;
9884;SDS011;4981;50.966;4.842;2023-09-19T01:24:34;15.93;;;2.87;;
9884;SDS011;4981;50.966;4.842;2023-09-19T01:27:26;14.03;;;2.30;;
9884;SDS011;4981;50.966;4.842;2023-09-19T01:30:10;9.10;;;2.13;;
9884;SDS011;4981;50.966;4.842;2023-09-19T01:32:42;13.03;;;2.23;;
9884;SDS011;4981;50.966;4.842;2023-09-19T01:35:11;10.27;;;2.80;;
9884;SDS011;4981;50.966;4.842;2023-09-19T01:37:38;8.60;;;2.20;;
9884;SDS011;4981;50.966;4.842;2023-09-19T01:40:09;9.50;;;2.40;;
9884;SDS011;4981;50.966;4.842;2023-09-19T01:42:43;8.90;;;2.60;;
9884;SDS011;4981;50.966;4.842;2023-09-19T01:45:17;13.23;;;2.60;;
9884;SDS011;4981;50.966;4.842;2023-09-19T01:47:54;12.97;;;2.63;;
9884;SDS011;4981;50.966;4.842;2023-09-19T01:50:29;8.13;;;2.17;;
9884;SDS011;4981;50.966;4.842;2023-09-19T01:53:02;13.60;;;2.53;;
9884;SDS011;4981;50.966;4.842;2023-09-19T01:55:35;11.03;;;3.03;;
9884;SDS011;4981;50.966;4.842;2023-09-19T01:58:08;10.33;;;2.33;;
9884;SDS011;4981;50.966;4.842;2023-09-19T02:00:44;9.53;;;2.27;;
9884;SDS011;4981;50.966;4.842;2023-09-19T02:03:13;8.77;;;2.63;;
9884;SDS011;4981;50.966;4.842;2023-09-19T02:05:41;8.60;;;2.03;;
9884;SDS011;4981;50.966;4.842;2023-09-19T02:08:15;12.73;;;2.50;;
9884;SDS011;4981;50.966;4.842;2023-09-19T02:10:43;9.13;;;2.70;;
9884;SDS011;4981;50.966;4.842;2023-09-19T02:13:13;13.67;;;2.20;;
9884;SDS011;4981;50.966;4.842;2023-09-19T02:15:43;10.40;;;2.67;;
9884;SDS011;4981;50.966;4.842;2023-09-19T02:18:10;11.37;;;2.23;;
9884;SDS011;4981;50.966;4.842;2023-09-19T02:20:37;11.60;;;2.07;;
9884;SDS011;4981;50.966;4.842;2023-09-19T02:23:04;7.80;;;2.20;;
9884;SDS011;4981;50.966;4.842;2023-09-19T02:25:33;9.37;;;2.53;;
9884;SDS011;4981;50.966;4.842;2023-09-19T02:28:00;8.10;;;1.90;;
9884;SDS011;4981;50.966;4.842;2023-09-19T02:30:28;7.80;;;2.13;;
9884;SDS011;4981;50.966;4.842;2023-09-19T02:32:56;12.53;;;2.40;;
9884;SDS011;4981;50.966;4.842;2023-09-19T02:35:23;12.70;;;2.40;;
9884;SDS011;4981;50.966;4.842;2023-09-19T02:37:51;11.77;;;2.63;;
9884;SDS011;4981;50.966;4.842;2023-09-19T02:40:18;9.70;;;2.20;;
9884;SDS011;4981;50.966;4.842;2023-09-19T02:42:45;12.70;;;2.43;;
9884;SDS011;4981;50.966;4.842;2023-09-19T02:45:14;12.13;;;2.50;;
9884;SDS011;4981;50.966;4.842;2023-09-19T02:47:42;8.03;;;2.43;;
9884;SDS011;4981;50.966;4.842;2023-09-19T02:50:11;12.47;;;2.30;;
9884;SDS011;4981;50.966;4.842;2023-09-19T02:52:38;11.90;;;2.53;;
9884;SDS011;4981;50.966;4.842;2023-09-19T02:55:08;7.97;;;1.93;;
9884;SDS011;4981;50.966;4.842;2023-09-19T02:57:35;9.27;;;2.20;;
9884;SDS011;4981;50.966;4.842;2023-09-19T03:00:06;11.97;;;3.07;;
9884;SDS011;4981;50.966;4.842;2023-09-19T03:02:35;14.20;;;3.10;;
9884;SDS011;4981;50.966;4.842;2023-09-19T03:05:03;11.27;;;2.70;;
9884;SDS011;4981;50.966;4.842;2023-09-19T03:07:32;13.33;;;2.53;;
9884;SDS011;4981;50.966;4.842;2023-09-19T03:09:59;8.63;;;2.60;;
9884;SDS011;4981;50.966;4.842;2023-09-19T03:12:26;10.77;;;2.90;;
9884;SDS011;4981;50.966;4.842;2023-09-19T03:14:54;10.17;;;2.70;;
9884;SDS011;4981;50.966;4.842;2023-09-19T03:17:21;15.30;;;2.93;;
9884;SDS011;4981;50.966;4.842;2023-09-19T03:19:48;12.57;;;2.20;;
9884;SDS011;4981;50.966;4.842;2023-09-19T03:22:15;8.57;;;2.40;;
9884;SDS011;4981;50.966;4.842;2023-09-19T03:24:43;10.90;;;2.47;;
9884;SDS011;4981;50.966;4.842;2023-09-19T03:27:11;14.33;;;2.77;;
9884;SDS011;4981;50.966;4.842;2023-09-19T03:29:39;10.73;;;2.70;;
9884;SDS011;4981;50.966;4.842;2023-09-19T03:32:06;8.10;;;2.40;;
9884;SDS011;4981;50.966;4.842;2023-09-19T03:34:35;11.73;;;2.67;;
9884;SDS011;4981;50.966;4.842;2023-09-19T03:37:03;8.90;;;2.40;;
9884;SDS011;4981;50.966;4.842;2023-09-19T03:39:31;10.93;;;2.70;;
9884;SDS011;4981;50.966;4.842;2023-09-19T03:42:00;12.17;;;2.80;;
9884;SDS011;4981;50.966;4.842;2023-09-19T03:44:28;14.63;;;2.67;;
9884;SDS011;4981;50.966;4.842;2023-09-19T03:46:55;9.70;;;2.03;;
9884;SDS011;4981;50.966;4.842;2023-09-19T03:49:22;11.83;;;2.80;;
9884;SDS011;4981;50.966;4.842;2023-09-19T03:51:49;12.23;;;2.30;;
9884;SDS011;4981;50.966;4.842;2023-09-19T03:54:16;14.20;;;2.70;;
9884;SDS011;4981;50.966;4.842;2023-09-19T03:56:44;12.47;;;2.63;;
9884;SDS011;4981;50.966;4.842;2023-09-19T03:59:13;11.00;;;2.90;;
9884;SDS011;4981;50.966;4.842;2023-09-19T04:01:39;14.10;;;2.73;;
9884;SDS011;4981;50.966;4.842;2023-09-19T04:04:06;8.93;;;2.60;;
9884;SDS011;4981;50.966;4.842;2023-09-19T04:06:34;13.20;;;2.40;;
9884;SDS011;4981;50.966;4.842;2023-09-19T04:09:01;11.83;;;2.77;;
9884;SDS011;4981;50.966;4.842;2023-09-19T04:11:29;9.10;;;2.73;;
9884;SDS011;4981;50.966;4.842;2023-09-19T04:13:56;10.87;;;2.47;;
9884;SDS011;4981;50.966;4.842;2023-09-19T04:16:24;12.93;;;2.40;;
9884;SDS011;4981;50.966;4.842;2023-09-19T04:18:51;12.60;;;3.13;;
9884;SDS011;4981;50.966;4.842;2023-09-19T04:21:18;13.17;;;2.50;;
9884;SDS011;4981;50.966;4.842;2023-09-19T04:23:45;12.67;;;2.40;;
9884;SDS011;4981;50.966;4.842;2023-09-19T04:26:12;10.30;;;2.30;;
9884;SDS011;4981;50.966;4.842;2023-09-19T04:28:41;10.67;;;2.40;;
9884;SDS011;4981;50.966;4.842;2023-09-19T04:31:09;13.90;;;2.57;;
9884;SDS011;4981;50.966;4.842;2023-09-19T04:33:38;8.43;;;2.43;;
9884;SDS011;4981;50.966;4.842;2023-09-19T04:36:05;11.83;;;2.47;;
9884;SDS011;4981;50.966;4.842;2023-09-19T04:38:32;10.27;;;3.03;;
9884;SDS011;4981;50.966;4.842;2023-09-19T04:40:59;8.20;;;2.07;;
9884;SDS011;4981;50.966;4.842;2023-09-19T04:43:26;8.57;;;2.63;;
9884;SDS011;4981;50.966;4.842;2023-09-19T04:45:54;12.87;;;3.03;;
9884;SDS011;4981;50.966;4.842;2023-09-19T04:48:21;11.23;;;2.77;;
9884;SDS011;4981;50.966;4.842;2023-09-19T04:50:51;13.07;;;2.67;;
9884;SDS011;4981;50.966;4.842;2023-09-19T04:53:18;10.93;;;2.30;;
9884;SDS011;4981;50.966;4.842;2023-09-19T04:55:49;9.60;;;2.17;;
9884;SDS011;4981;50.966;4.842;2023-09-19T04:58:18;10.37;;;2.70;;
9884;SDS011;4981;50.966;4.842;2023-09-19T05:00:45;11.67;;;2.73;;
9884;SDS011;4981;50.966;4.842;2023-09-19T05:03:12;9.07;;;2.50;;
9884;SDS011;4981;50.966;4.842;2023-09-19T05:05:39;16.83;;;2.90;;
9884;SDS011;4981;50.966;4.842;2023-09-19T05:08:09;11.23;;;2.40;;
9884;SDS011;4981;50.966;4.842;2023-09-19T05:10:36;9.73;;;2.13;;
9884;SDS011;4981;50.966;4.842;2023-09-19T05:13:04;13.20;;;2.40;;
9884;SDS011;4981;50.966;4.842;2023-09-19T05:15:32;15.67;;;3.07;;
9884;SDS011;4981;50.966;4.842;2023-09-19T05:18:00;8.23;;;2.43;;
9884;SDS011;4981;50.966;4.842;2023-09-19T05:20:28;13.03;;;2.23;;
9884;SDS011;4981;50.966;4.842;2023-09-19T05:22:58;9.47;;;2.10;;
9884;SDS011;4981;50.966;4.842;2023-09-19T05:25:28;9.57;;;2.17;;
9884;SDS011;4981;50.966;4.842;2023-09-19T05:27:57;10.90;;;2.63;;
9884;SDS011;4981;50.966;4.842;2023-09-19T05:30:26;15.77;;;2.97;;
9884;SDS011;4981;50.966;4.842;2023-09-19T05:32:54;11.80;;;2.33;;
9884;SDS011;4981;50.966;4.842;2023-09-19T05:35:22;8.27;;;2.13;;
9884;SDS011;4981;50.966;4.842;2023-09-19T05:37:50;10.70;;;2.43;;
9884;SDS011;4981;50.966;4.842;2023-09-19T05:40:17;10.10;;;2.37;;
9884;SDS011;4981;50.966;4.842;2023-09-19T05:42:46;12.00;;;2.17;;
9884;SDS011;4981;50.966;4.842;2023-09-19T05:45:15;11.07;;;2.60;;
9884;SDS011;4981;50.966;4.842;2023-09-19T05:47:47;11.47;;;2.50;;
9884;SDS011;4981;50.966;4.842;2023-09-19T05:50:15;11.60;;;2.20;;
9884;SDS011;4981;50.966;4.842;2023-09-19T05:52:43;10.33;;;2.10;;
9884;SDS011;4981;50.966;4.842;2023-09-19T05:55:17;14.13;;;2.70;;
9884;SDS011;4981;50.966;4.842;2023-09-19T05:57:50;11.13;;;2.33;;
9884;SDS011;4981;50.966;4.842;2023-09-19T06:00:17;9.77;;;1.90;;
9884;SDS011;4981;50.966;4.842;2023-09-19T06:02:48;6.53;;;2.20;;
9884;SDS011;4981;50.966;4.842;2023-09-19T06:05:17;9.03;;;2.53;;
9884;SDS011;4981;50.966;4.842;2023-09-19T06:07:45;7.67;;;1.97;;
9884;SDS011;4981;50.966;4.842;2023-09-19T06:10:12;9.57;;;1.80;;
9884;SDS011;4981;50.966;4.842;2023-09-19T06:12:39;11.87;;;2.80;;
9884;SDS011;4981;50.966;4.842;2023-09-19T06:15:11;12.40;;;2.23;;
9884;SDS011;4981;50.966;4.842;2023-09-19T06:17:40;8.37;;;2.03;;
9884;SDS011;4981;50.966;4.842;2023-09-19T06:20:08;10.00;;;2.30;;
9884;SDS011;4981;50.966;4.842;2023-09-19T06:22:40;11.67;;;2.43;;
9884;SDS011;4981;50.966;4.842;2023-09-19T06:25:08;7.93;;;2.20;;
9884;SDS011;4981;50.966;4.842;2023-09-19T06:27:37;14.70;;;2.83;;
9884;SDS011;4981;50.966;4.842;2023-09-19T06:30:07;10.70;;;2.30;;
9884;SDS011;4981;50.966;4.842;2023-09-19T06:32:37;9.63;;;2.37;;
9884;SDS011;4981;50.966;4.842;2023-09-19T06:35:05;9.30;;;2.37;;
9884;SDS011;4981;50.966;4.842;2023-09-19T06:37:34;12.83;;;2.77;;
9884;SDS011;4981;50.966;4.842;2023-09-19T06:40:01;7.97;;;1.73;;
9884;SDS011;4981;50.966;4.842;2023-09-19T06:42:30;13.97;;;2.97;;
9884;SDS011;4981;50.966;4.842;2023-09-19T06:44:58;13.30;;;2.63;;
9884;SDS011;4981;50.966;4.842;2023-09-19T06:47:24;12.17;;;2.50;;
9884;SDS011;4981;50.966;4.842;2023-09-19T06:49:53;13.43;;;2.73;;
9884;SDS011;4981;50.966;4.842;2023-09-19T06:52:20;8.83;;;2.73;;
9884;SDS011;4981;50.966;4.842;2023-09-19T06:54:47;12.17;;;3.20;;
9884;SDS011;4981;50.966;4.842;2023-09-19T06:57:15;14.73;;;2.83;;
9884;SDS011;4981;50.966;4.842;2023-09-19T06:59:42;9.93;;;2.40;;
9884;SDS011;4981;50.966;4.842;2023-09-19T07:02:10;12.50;;;2.27;;
9884;SDS011;4981;50.966;4.842;2023-09-19T07:04:37;11.10;;;2.57;;
9884;SDS011;4981;50.966;4.842;2023-09-19T07:07:05;9.37;;;2.53;;
9884;SDS011;4981;50.966;4.842;2023-09-19T07:09:34;10.30;;;2.33;;
9884;SDS011;4981;50.966;4.842;2023-09-19T07:12:01;8.17;;;2.30;;
9884;SDS011;4981;50.966;4.842;2023-09-19T07:14:28;11.40;;;2.27;;
9884;SDS011;4981;50.966;4.842;2023-09-19T07:16:55;12.67;;;2.63;;
9884;SDS011;4981;50.966;4.842;2023-09-19T07:19:24;13.30;;;2.73;;
9884;SDS011;4981;50.966;4.842;2023-09-19T07:21:53;7.20;;;1.77;;
9884;SDS011;4981;50.966;4.842;2023-09-19T07:24:22;5.90;;;1.97;;
9884;SDS011;4981;50.966;4.842;2023-09-19T07:26:49;10.00;;;2.10;;
9884;SDS011;4981;50.966;4.842;2023-09-19T07:29:16;10.93;;;2.60;;
9884;SDS011;4981;50.966;4.842;2023-09-19T07:31:43;10.27;;;2.37;;
9884;SDS011;4981;50.966;4.842;2023-09-19T07:34:11;9.30;;;2.43;;
9884;SDS011;4981;50.966;4.842;2023-09-19T07:36:39;7.27;;;2.30;;
9884;SDS011;4981;50.966;4.842;2023-09-19T07:39:07;8.97;;;1.97;;
9884;SDS011;4981;50.966;4.842;2023-09-19T07:41:35;7.17;;;2.10;;
9884;SDS011;4981;50.966;4.842;2023-09-19T07:44:02;10.33;;;2.43;;
9884;SDS011;4981;50.966;4.842;2023-09-19T07:46:29;11.53;;;2.43;;
9884;SDS011;4981;50.966;4.842;2023-09-19T07:48:57;10.83;;;2.20;;
9884;SDS011;4981;50.966;4.842;2023-09-19T07:51:24;8.93;;;1.90;;
9884;SDS011;4981;50.966;4.842;2023-09-19T07:53:52;9.33;;;2.47;;
9884;SDS011;4981;50.966;4.842;2023-09-19T07:56:20;9.60;;;2.40;;
9884;SDS011;4981;50.966;4.842;2023-09-19T07:58:49;12.27;;;2.27;;
9884;SDS011;4981;50.966;4.842;2023-09-19T08:01:17;10.93;;;2.47;;
9884;SDS011;4981;50.966;4.842;2023-09-19T08:03:44;12.73;;;2.73;;
9884;SDS011;4981;50.966;4.842;2023-09-19T08:06:10;12.97;;;2.17;;
9884;SDS011;4981;50.966;4.842;2023-09-19T08:08:38;8.63;;;1.90;;
9884;SDS011;4981;50.966;4.842;2023-09-19T08:11:06;9.57;;;2.37;;
9884;SDS011;4981;50.966;4.842;2023-09-19T08:13:36;13.67;;;2.53;;
9884;SDS011;4981;50.966;4.842;2023-09-19T08:16:07;11.53;;;2.53;;
9884;SDS011;4981;50.966;4.842;2023-09-19T08:18:34;8.77;;;2.40;;
9884;SDS011;4981;50.966;4.842;2023-09-19T08:21:02;12.20;;;1.90;;
9884;SDS011;4981;50.966;4.842;2023-09-19T08:23:29;9.90;;;2.20;;
9884;SDS011;4981;50.966;4.842;2023-09-19T08:25:57;11.53;;;2.40;;
9884;SDS011;4981;50.966;4.842;2023-09-19T08:28:27;12.47;;;2.53;;
9884;SDS011;4981;50.966;4.842;2023-09-19T08:30:54;8.53;;;2.33;;
9884;SDS011;4981;50.966;4.842;2023-09-19T08:33:24;10.60;;;2.27;;
9884;SDS011;4981;50.966;4.842;2023-09-19T08:35:51;10.20;;;2.23;;
9884;SDS011;4981;50.966;4.842;2023-09-19T08:38:18;11.27;;;2.20;;
9884;SDS011;4981;50.966;4.842;2023-09-19T08:40:45;8.90;;;2.23;;
9884;SDS011;4981;50.966;4.842;2023-09-19T08:43:12;12.17;;;2.60;;
9884;SDS011;4981;50.966;4.842;2023-09-19T08:45:39;10.70;;;2.50;;
9884;SDS011;4981;50.966;4.842;2023-09-19T08:50:56;7.20;;;1.90;;
9884;SDS011;4981;50.966;4.842;2023-09-19T08:53:42;12.40;;;2.17;;
9884;SDS011;4981;50.966;4.842;2023-09-19T08:56:18;10.93;;;2.33;;
9884;SDS011;4981;50.966;4.842;2023-09-19T08:58:48;10.40;;;2.03;;
9884;SDS011;4981;50.966;4.842;2023-09-19T09:01:18;10.13;;;2.40;;
9884;SDS011;4981;50.966;4.842;2023-09-19T09:03:51;10.93;;;1.90;;
9884;SDS011;4981;50.966;4.842;2023-09-19T09:06:18;12.47;;;2.73;;
9884;SDS011;4981;50.966;4.842;2023-09-19T09:08:46;10.53;;;2.57;;
9884;SDS011;4981;50.966;4.842;2023-09-19T09:11:14;14.80;;;3.00;;
9884;SDS011;4981;50.966;4.842;2023-09-19T09:13:42;8.37;;;2.17;;
9884;SDS011;4981;50.966;4.842;2023-09-19T09:16:10;8.67;;;2.63;;
9884;SDS011;4981;50.966;4.842;2023-09-19T09:18:38;11.60;;;2.33;;
9884;SDS011;4981;50.966;4.842;2023-09-19T09:21:07;12.33;;;2.93;;
9884;SDS011;4981;50.966;4.842;2023-09-19T09:23:34;9.50;;;2.50;;
9884;SDS011;4981;50.966;4.842;2023-09-19T09:26:01;10.17;;;2.53;;
9884;SDS011;4981;50.966;4.842;2023-09-19T09:28:30;10.00;;;2.47;;
9884;SDS011;4981;50.966;4.842;2023-09-19T09:30:59;10.53;;;2.70;;
9884;SDS011;4981;50.966;4.842;2023-09-19T09:33:28;12.57;;;2.30;;
9884;SDS011;4981;50.966;4.842;2023-09-19T09:35:56;11.97;;;2.57;;
9884;SDS011;4981;50.966;4.842;2023-09-19T09:38:27;14.10;;;2.77;;
9884;SDS011;4981;50.966;4.842;2023-09-19T09:40:57;7.70;;;2.33;;
9884;SDS011;4981;50.966;4.842;2023-09-19T09:43:29;6.47;;;1.50;;
9884;SDS011;4981;50.966;4.842;2023-09-19T09:46:13;9.10;;;2.33;;
9884;SDS011;4981;50.966;4.842;2023-09-19T09:49:09;11.53;;;2.10;;
9884;SDS011;4981;50.966;4.842;2023-09-19T09:51:50;11.10;;;2.13;;
9884;SDS011;4981;50.966;4.842;2023-09-19T09:54:27;8.27;;;2.07;;
9884;SDS011;4981;50.966;4.842;2023-09-19T09:57:01;8.17;;;2.00;;
9884;SDS011;4981;50.966;4.842;2023-09-19T09:59:48;9.90;;;2.17;;
9884;SDS011;4981;50.966;4.842;2023-09-19T10:02:21;7.37;;;2.00;;
9884;SDS011;4981;50.966;4.842;2023-09-19T10:04:54;9.27;;;2.00;;
9884;SDS011;4981;50.966;4.842;2023-09-19T10:07:40;7.35;;;1.98;;
9884;SDS011;4981;50.966;4.842;2023-09-19T10:10:15;9.67;;;2.20;;
9884;SDS011;4981;50.966;4.842;2023-09-19T10:13:02;10.13;;;2.60;;
9884;SDS011;4981;50.966;4.842;2023-09-19T10:15:33;11.33;;;2.50;;
9884;SDS011;4981;50.966;4.842;2023-09-19T10:18:01;11.00;;;2.60;;
9884;SDS011;4981;50.966;4.842;2023-09-19T10:20:31;7.37;;;2.07;;
9884;SDS011;4981;50.966;4.842;2023-09-19T10:23:01;4.63;;;1.30;;
9884;SDS011;4981;50.966;4.842;2023-09-19T10:25:36;10.63;;;2.10;;
9884;SDS011;4981;50.966;4.842;2023-09-19T10:28:04;6.03;;;1.53;;
9884;SDS011;4981;50.966;4.842;2023-09-19T10:30:36;9.90;;;1.90;;
9884;SDS011;4981;50.966;4.842;2023-09-19T10:33:10;11.13;;;1.70;;
9884;SDS011;4981;50.966;4.842;2023-09-19T10:35:38;7.37;;;1.60;;
9884;SDS011;4981;50.966;4.842;2023-09-19T10:38:06;5.37;;;1.47;;
9884;SDS011;4981;50.966;4.842;2023-09-19T10:40:37;6.10;;;1.37;;
9884;SDS011;4981;50.966;4.842;2023-09-19T10:43:10;8.27;;;1.83;;
9884;SDS011;4981;50.966;4.842;2023-09-19T10:45:39;5.40;;;1.40;;
9884;SDS011;4981;50.966;4.842;2023-09-19T10:48:07;6.33;;;1.63;;
9884;SDS011;4981;50.966;4.842;2023-09-19T10:50:35;4.73;;;1.63;;
9884;SDS011;4981;50.966;4.842;2023-09-19T10:53:10;10.23;;;1.90;;
9884;SDS011;4981;50.966;4.842;2023-09-19T10:55:41;8.67;;;1.67;;
9884;SDS011;4981;50.966;4.842;2023-09-19T10:58:24;5.00;;;1.20;;
9884;SDS011;4981;50.966;4.842;2023-09-19T11:00:54;7.90;;;1.80;;
9884;SDS011;4981;50.966;4.842;2023-09-19T11:03:22;4.00;;;1.30;;
9884;SDS011;4981;50.966;4.842;2023-09-19T11:06:02;7.07;;;1.60;;
9884;SDS011;4981;50.966;4.842;2023-09-19T11:08:51;4.73;;;1.20;;
9884;SDS011;4981;50.966;4.842;2023-09-19T11:11:48;3.95;;;1.17;;
9884;SDS011;4981;50.966;4.842;2023-09-19T11:25:56;5.37;;;1.50;;
9884;SDS011;4981;50.966;4.842;2023-09-19T11:28:31;3.88;;;1.20;;
9884;SDS011;4981;50.966;4.842;2023-09-19T11:37:01;3.97;;;0.97;;
9884;SDS011;4981;50.966;4.842;2023-09-19T11:39:29;8.88;;;1.40;;
9884;SDS011;4981;50.966;4.842;2023-09-19T11:41:58;5.45;;;1.55;;
9884;SDS011;4981;50.966;4.842;2023-09-19T11:44:33;3.35;;;0.90;;
9884;SDS011;4981;50.966;4.842;2023-09-19T11:47:03;6.28;;;1.35;;
9884;SDS011;4981;50.966;4.842;2023-09-19T11:49:32;2.55;;;0.90;;
9884;SDS011;4981;50.966;4.842;2023-09-19T11:52:02;3.83;;;1.40;;
9884;SDS011;4981;50.966;4.842;2023-09-19T11:54:31;4.22;;;0.77;;
9884;SDS011;4981;50.966;4.842;2023-09-19T11:56:59;4.90;;;1.10;;
9884;SDS011;4981;50.966;4.842;2023-09-19T11:59:28;3.65;;;0.85;;
9884;SDS011;4981;50.966;4.842;2023-09-19T12:01:58;2.05;;;0.60;;
9884;SDS011;4981;50.966;4.842;2023-09-19T12:04:33;3.53;;;0.90;;
9884;SDS011;4981;50.966;4.842;2023-09-19T12:07:03;5.43;;;1.13;;
9884;SDS011;4981;50.966;4.842;2023-09-19T12:09:38;3.35;;;1.00;;
9884;SDS011;4981;50.966;4.842;2023-09-19T12:12:06;5.28;;;0.98;;
9884;SDS011;4981;50.966;4.842;2023-09-19T12:14:34;3.25;;;0.90;;
9884;SDS011;4981;50.966;4.842;2023-09-19T12:17:03;4.10;;;1.10;;
9884;SDS011;4981;50.966;4.842;2023-09-19T12:19:30;3.33;;;0.90;;
9884;SDS011;4981;50.966;4.842;2023-09-19T12:21:57;2.22;;;0.95;;
9884;SDS011;4981;50.966;4.842;2023-09-19T12:24:25;6.57;;;1.08;;
9884;SDS011;4981;50.966;4.842;2023-09-19T12:26:56;2.88;;;0.75;;
9884;SDS011;4981;50.966;4.842;2023-09-19T12:29:29;1.52;;;0.70;;
9884;SDS011;4981;50.966;4.842;2023-09-19T12:31:57;2.28;;;1.15;;
9884;SDS011;4981;50.966;4.842;2023-09-19T12:34:30;5.93;;;1.20;;
9884;SDS011;4981;50.966;4.842;2023-09-19T12:37:06;2.25;;;0.73;;
9884;SDS011;4981;50.966;4.842;2023-09-19T12:39:46;3.90;;;0.93;;
9884;SDS011;4981;50.966;4.842;2023-09-19T12:42:16;2.50;;;0.80;;
9884;SDS011;4981;50.966;4.842;2023-09-19T12:44:45;2.58;;;0.70;;
9884;SDS011;4981;50.966;4.842;2023-09-19T12:47:14;2.25;;;0.60;;
9884;SDS011;4981;50.966;4.842;2023-09-19T12:50:08;2.43;;;0.70;;
9884;SDS011;4981;50.966;4.842;2023-09-19T12:52:44;2.00;;;0.60;;
9884;SDS011;4981;50.966;4.842;2023-09-19T12:55:22;0.80;;;0.50;;
9884;SDS011;4981;50.966;4.842;2023-09-19T12:57:59;5.90;;;1.00;;
9884;SDS011;4981;50.966;4.842;2023-09-19T13:00:36;5.93;;;1.73;;
9884;SDS011;4981;50.966;4.842;2023-09-19T13:03:16;3.25;;;0.85;;
9884;SDS011;4981;50.966;4.842;2023-09-19T13:05:49;2.63;;;0.77;;
9884;SDS011;4981;50.966;4.842;2023-09-19T13:08:20;1.23;;;0.65;;
9884;SDS011;4981;50.966;4.842;2023-09-19T13:11:01;1.45;;;0.85;;
9884;SDS011;4981;50.966;4.842;2023-09-19T13:13:41;1.52;;;0.70;;
9884;SDS011;4981;50.966;4.842;2023-09-19T13:16:10;2.35;;;0.60;;
9884;SDS011;4981;50.966;4.842;2023-09-19T13:18:44;2.30;;;0.50;;
9884;SDS011;4981;50.966;4.842;2023-09-19T13:21:17;3.15;;;0.65;;
9884;SDS011;4981;50.966;4.842;2023-09-19T13:23:54;2.78;;;0.80;;
9884;SDS011;4981;50.966;4.842;2023-09-19T13:26:24;4.32;;;0.75;;
9884;SDS011;4981;50.966;4.842;2023-09-19T13:28:53;2.05;;;0.65;;
9884;SDS011;4981;50.966;4.842;2023-09-19T13:31:20;3.97;;;0.85;;
9884;SDS011;4981;50.966;4.842;2023-09-19T13:33:48;1.77;;;0.43;;
9884;SDS011;4981;50.966;4.842;2023-09-19T13:36:18;4.18;;;1.05;;
9884;SDS011;4981;50.966;4.842;2023-09-19T13:38:45;2.10;;;0.98;;
9884;SDS011;4981;50.966;4.842;2023-09-19T13:41:14;6.57;;;1.05;;
9884;SDS011;4981;50.966;4.842;2023-09-19T13:43:41;7.22;;;1.17;;
9884;SDS011;4981;50.966;4.842;2023-09-19T13:46:14;3.77;;;1.00;;
9884;SDS011;4981;50.966;4.842;2023-09-19T13:48:41;5.13;;;1.10;;
9884;SDS011;4981;50.966;4.842;2023-09-19T13:51:08;2.92;;;0.70;;
9884;SDS011;4981;50.966;4.842;2023-09-19T13:53:37;4.28;;;0.98;;
9884;SDS011;4981;50.966;4.842;2023-09-19T13:56:04;4.00;;;1.10;;
9884;SDS011;4981;50.966;4.842;2023-09-19T13:58:31;2.55;;;0.80;;
9884;SDS011;4981;50.966;4.842;2023-09-19T14:00:59;2.83;;;0.70;;
9884;SDS011;4981;50.966;4.842;2023-09-19T14:03:26;4.03;;;0.87;;
9884;SDS011;4981;50.966;4.842;2023-09-19T14:05:54;4.35;;;0.95;;
9884;SDS011;4981;50.966;4.842;2023-09-19T14:08:21;3.22;;;0.90;;
9884;SDS011;4981;50.966;4.842;2023-09-19T14:10:50;1.42;;;0.70;;
9884;SDS011;4981;50.966;4.842;2023-09-19T14:13:17;2.10;;;0.68;;
9884;SDS011;4981;50.966;4.842;2023-09-19T14:15:45;3.47;;;0.90;;
9884;SDS011;4981;50.966;4.842;2023-09-19T14:18:12;3.13;;;0.88;;
9884;SDS011;4981;50.966;4.842;2023-09-19T14:20:39;0.65;;;0.40;;
9884;SDS011;4981;50.966;4.842;2023-09-19T14:23:06;3.30;;;0.90;;
9884;SDS011;4981;50.966;4.842;2023-09-19T14:25:34;1.83;;;0.60;;
9884;SDS011;4981;50.966;4.842;2023-09-19T14:28:02;1.98;;;0.68;;
9884;SDS011;4981;50.966;4.842;2023-09-19T14:30:30;4.63;;;0.88;;
9884;SDS011;4981;50.966;4.842;2023-09-19T14:32:58;2.45;;;0.75;;
9884;SDS011;4981;50.966;4.842;2023-09-19T14:35:26;3.08;;;0.80;;
9884;SDS011;4981;50.966;4.842;2023-09-19T14:37:53;3.97;;;0.85;;
9884;SDS011;4981;50.966;4.842;2023-09-19T14:40:20;4.30;;;1.17;;
9884;SDS011;4981;50.966;4.842;2023-09-19T14:42:47;2.37;;;0.77;;
9884;SDS011;4981;50.966;4.842;2023-09-19T14:45:16;3.15;;;0.90;;
9884;SDS011;4981;50.966;4.842;2023-09-19T14:47:43;3.30;;;1.05;;
9884;SDS011;4981;50.966;4.842;2023-09-19T14:50:12;1.70;;;0.80;;
9884;SDS011;4981;50.966;4.842;2023-09-19T14:52:40;1.30;;;0.70;;
9884;SDS011;4981;50.966;4.842;2023-09-19T14:55:07;1.40;;;0.55;;
9884;SDS011;4981;50.966;4.842;2023-09-19T14:57:40;1.08;;;0.60;;
9884;SDS011;4981;50.966;4.842;2023-09-19T15:00:10;2.90;;;1.10;;
9884;SDS011;4981;50.966;4.842;2023-09-19T15:02:40;2.55;;;1.10;;
9884;SDS011;4981;50.966;4.842;2023-09-19T15:05:07;3.33;;;0.90;;
9884;SDS011;4981;50.966;4.842;2023-09-19T15:07:35;4.78;;;0.82;;
9884;SDS011;4981;50.966;4.842;2023-09-19T15:10:03;1.85;;;0.73;;
9884;SDS011;4981;50.966;4.842;2023-09-19T15:12:34;4.32;;;1.00;;
9884;SDS011;4981;50.966;4.842;2023-09-19T15:15:03;1.92;;;0.75;;
9884;SDS011;4981;50.966;4.842;2023-09-19T15:17:32;5.63;;;1.30;;
9884;SDS011;4981;50.966;4.842;2023-09-19T15:20:00;2.63;;;1.20;;
9884;SDS011;4981;50.966;4.842;2023-09-19T15:22:31;2.70;;;1.10;;
9884;SDS011;4981;50.966;4.842;2023-09-19T15:24:58;3.75;;;0.95;;
9884;SDS011;4981;50.966;4.842;2023-09-19T15:27:26;5.38;;;0.93;;
9884;SDS011;4981;50.966;4.842;2023-09-19T15:29:56;3.05;;;0.90;;
9884;SDS011;4981;50.966;4.842;2023-09-19T15:32:23;3.90;;;1.00;;
9884;SDS011;4981;50.966;4.842;2023-09-19T15:34:50;4.70;;;1.13;;
9884;SDS011;4981;50.966;4.842;2023-09-19T15:37:18;4.07;;;1.05;;
9884;SDS011;4981;50.966;4.842;2023-09-19T15:39:45;3.00;;;0.85;;
9884;SDS011;4981;50.966;4.842;2023-09-19T15:42:12;3.15;;;0.98;;
9884;SDS011;4981;50.966;4.842;2023-09-19T15:44:41;4.07;;;1.13;;
9884;SDS011;4981;50.966;4.842;2023-09-19T15:47:09;2.55;;;1.10;;
9884;SDS011;4981;50.966;4.842;2023-09-19T15:49:36;4.35;;;1.30;;
9884;SDS011;4981;50.966;4.842;2023-09-19T15:52:03;3.70;;;1.40;;
9884;SDS011;4981;50.966;4.842;2023-09-19T15:54:32;9.30;;;1.73;;